sensor_id;sensor_type;location;lat;lon;timestamp;pressure;altitude;pressure_sealevel;temperature;humidity
76108;BME280;64834;52.516;10.528;2023-08-30T00:00:11;100171.69;;;12.88;93.30
76108;BME280;64834;52.516;10.528;2023-08-30T00:02:36;100165.91;;;12.75;94.01
76108;BME280;64834;52.516;10.528;2023-08-30T00:05:02;100167.16;;;12.62;95.21
76108;BME280;64834;52.516;10.528;2023-08-30T00:07:28;100171.94;;;12.50;95.92
76108;BME280;64834;52.516;10.528;2023-08-30T00:09:54;100178.91;;;12.49;95.99
76108;BME280;64834;52.516;10.528;2023-08-30T00:12:19;100180.66;;;12.49;96.81
76108;BME280;64834;52.516;10.528;2023-08-30T00:14:45;100181.25;;;12.41;98.64
76108;BME280;64834;52.516;10.528;2023-08-30T00:17:10;100174.31;;;12.43;98.83
76108;BME280;64834;52.516;10.528;2023-08-30T00:19:36;100175.69;;;12.34;99.20
76108;BME280;64834;52.516;10.528;2023-08-30T00:22:01;100170.16;;;12.26;99.66
76108;BME280;64834;52.516;10.528;2023-08-30T00:24:26;100170.22;;;12.28;100.00
76108;BME280;64834;52.516;10.528;2023-08-30T00:26:53;100171.44;;;12.37;100.00
76108;BME280;64834;52.516;10.528;2023-08-30T00:29:18;100175.66;;;12.32;99.39
76108;BME280;64834;52.516;10.528;2023-08-30T00:31:44;100168.72;;;12.34;99.78
76108;BME280;64834;52.516;10.528;2023-08-30T00:34:09;100169.66;;;12.36;99.75
76108;BME280;64834;52.516;10.528;2023-08-30T00:36:34;100168.91;;;12.39;98.41
76108;BME280;64834;52.516;10.528;2023-08-30T00:39:00;100177.53;;;12.36;98.04
76108;BME280;64834;52.516;10.528;2023-08-30T00:41:25;100176.06;;;12.43;97.97
76108;BME280;64834;52.516;10.528;2023-08-30T00:43:50;100181.06;;;12.37;97.42
76108;BME280;64834;52.516;10.528;2023-08-30T00:46:16;100174.63;;;12.29;98.25
76108;BME280;64834;52.516;10.528;2023-08-30T00:48:43;100176.22;;;12.25;98.58
76108;BME280;64834;52.516;10.528;2023-08-30T00:51:09;100172.63;;;12.23;98.99
76108;BME280;64834;52.516;10.528;2023-08-30T00:53:34;100172.44;;;12.19;99.26
76108;BME280;64834;52.516;10.528;2023-08-30T00:56:00;100166.25;;;12.17;99.01
76108;BME280;64834;52.516;10.528;2023-08-30T00:58:25;100167.94;;;12.14;99.46
76108;BME280;64834;52.516;10.528;2023-08-30T01:00:54;100170.28;;;12.08;99.91
76108;BME280;64834;52.516;10.528;2023-08-30T01:03:20;100171.84;;;12.03;99.79
76108;BME280;64834;52.516;10.528;2023-08-30T01:05:46;100168.13;;;11.98;100.00
76108;BME280;64834;52.516;10.528;2023-08-30T01:08:12;100162.75;;;11.95;100.00
76108;BME280;64834;52.516;10.528;2023-08-30T01:10:49;100166.13;;;11.93;99.39
76108;BME280;64834;52.516;10.528;2023-08-30T01:13:18;100159.88;;;11.89;98.13
76108;BME280;64834;52.516;10.528;2023-08-30T01:15:47;100163.25;;;11.86;95.87
76108;BME280;64834;52.516;10.528;2023-08-30T01:18:16;100155.09;;;11.80;96.12
76108;BME280;64834;52.516;10.528;2023-08-30T01:20:44;100156.78;;;11.78;96.37
76108;BME280;64834;52.516;10.528;2023-08-30T01:23:23;100153.19;;;11.76;96.89
76108;BME280;64834;52.516;10.528;2023-08-30T01:25:57;100158.34;;;11.75;96.84
76108;BME280;64834;52.516;10.528;2023-08-30T01:28:29;100150.38;;;11.72;96.76
76108;BME280;64834;52.516;10.528;2023-08-30T01:30:55;100152.84;;;11.69;93.64
76108;BME280;64834;52.516;10.528;2023-08-30T01:33:23;100154.09;;;11.37;93.40
76108;BME280;64834;52.516;10.528;2023-08-30T01:35:49;100150.56;;;11.15;95.17
76108;BME280;64834;52.516;10.528;2023-08-30T01:38:15;100147.94;;;11.15;96.43
76108;BME280;64834;52.516;10.528;2023-08-30T01:40:42;100148.00;;;11.17;96.90
76108;BME280;64834;52.516;10.528;2023-08-30T01:43:09;100144.25;;;11.12;97.30
76108;BME280;64834;52.516;10.528;2023-08-30T01:45:38;100145.94;;;11.10;97.91
76108;BME280;64834;52.516;10.528;2023-08-30T01:48:07;100146.88;;;11.12;98.48
76108;BME280;64834;52.516;10.528;2023-08-30T01:50:34;100143.38;;;11.11;99.34
76108;BME280;64834;52.516;10.528;2023-08-30T01:53:00;100151.56;;;11.19;99.93
76108;BME280;64834;52.516;10.528;2023-08-30T01:55:26;100156.19;;;11.24;99.70
76108;BME280;64834;52.516;10.528;2023-08-30T01:57:53;100159.78;;;11.26;99.83
76108;BME280;64834;52.516;10.528;2023-08-30T02:00:18;100149.44;;;11.29;99.79
76108;BME280;64834;52.516;10.528;2023-08-30T02:02:44;100160.47;;;11.22;100.00
76108;BME280;64834;52.516;10.528;2023-08-30T02:05:09;100161.25;;;11.20;100.00
76108;BME280;64834;52.516;10.528;2023-08-30T02:10:09;100155.00;;;11.18;100.00
76108;BME280;64834;52.516;10.528;2023-08-30T02:12:41;100154.13;;;11.17;100.00
76108;BME280;64834;52.516;10.528;2023-08-30T02:15:08;100153.66;;;11.26;100.00
76108;BME280;64834;52.516;10.528;2023-08-30T02:17:37;100155.50;;;11.28;99.45
76108;BME280;64834;52.516;10.528;2023-08-30T02:20:03;100162.13;;;11.20;99.70
76108;BME280;64834;52.516;10.528;2023-08-30T02:22:30;100160.88;;;11.12;100.00
76108;BME280;64834;52.516;10.528;2023-08-30T02:24:55;100164.25;;;11.10;100.00
76108;BME280;64834;52.516;10.528;2023-08-30T02:27:21;100172.00;;;11.06;100.00
76108;BME280;64834;52.516;10.528;2023-08-30T02:29:46;100161.25;;;11.00;100.00
76108;BME280;64834;52.516;10.528;2023-08-30T02:32:11;100164.94;;;11.05;100.00
76108;BME280;64834;52.516;10.528;2023-08-30T02:34:37;100163.50;;;11.12;100.00
76108;BME280;64834;52.516;10.528;2023-08-30T02:37:02;100162.13;;;11.20;100.00
76108;BME280;64834;52.516;10.528;2023-08-30T02:39:27;100162.19;;;11.22;100.00
76108;BME280;64834;52.516;10.528;2023-08-30T02:41:53;100158.63;;;11.20;100.00
76108;BME280;64834;52.516;10.528;2023-08-30T02:44:18;100156.34;;;11.08;100.00
76108;BME280;64834;52.516;10.528;2023-08-30T02:46:43;100164.75;;;11.01;100.00
76108;BME280;64834;52.516;10.528;2023-08-30T02:49:09;100159.63;;;11.04;100.00
76108;BME280;64834;52.516;10.528;2023-08-30T02:51:36;100152.06;;;11.10;100.00
76108;BME280;64834;52.516;10.528;2023-08-30T02:54:01;100157.28;;;11.10;100.00
76108;BME280;64834;52.516;10.528;2023-08-30T02:56:27;100156.19;;;11.05;100.00
76108;BME280;64834;52.516;10.528;2023-08-30T02:58:52;100158.91;;;11.06;100.00
76108;BME280;64834;52.516;10.528;2023-08-30T03:01:17;100155.03;;;10.98;100.00
76108;BME280;64834;52.516;10.528;2023-08-30T03:03:43;100156.47;;;10.92;100.00
76108;BME280;64834;52.516;10.528;2023-08-30T03:06:08;100155.22;;;10.84;100.00
76108;BME280;64834;52.516;10.528;2023-08-30T03:08:33;100150.22;;;10.88;100.00
76108;BME280;64834;52.516;10.528;2023-08-30T03:11:11;100153.50;;;10.84;100.00
76108;BME280;64834;52.516;10.528;2023-08-30T03:13:37;100145.03;;;10.90;100.00
76108;BME280;64834;52.516;10.528;2023-08-30T03:16:13;100142.09;;;11.01;100.00
76108;BME280;64834;52.516;10.528;2023-08-30T03:18:39;100140.38;;;11.02;100.00
76108;BME280;64834;52.516;10.528;2023-08-30T03:21:04;100140.56;;;11.06;100.00
76108;BME280;64834;52.516;10.528;2023-08-30T03:23:31;100142.91;;;11.00;100.00
76108;BME280;64834;52.516;10.528;2023-08-30T03:25:57;100141.09;;;10.99;100.00
76108;BME280;64834;52.516;10.528;2023-08-30T03:28:23;100140.03;;;10.94;100.00
76108;BME280;64834;52.516;10.528;2023-08-30T03:30:48;100139.59;;;10.85;99.23
76108;BME280;64834;52.516;10.528;2023-08-30T03:33:13;100139.19;;;10.76;99.94
76108;BME280;64834;52.516;10.528;2023-08-30T03:35:39;100134.63;;;10.72;100.00
76108;BME280;64834;52.516;10.528;2023-08-30T03:38:04;100137.25;;;10.72;100.00
76108;BME280;64834;52.516;10.528;2023-08-30T03:40:30;100135.53;;;10.72;100.00
76108;BME280;64834;52.516;10.528;2023-08-30T03:42:55;100139.03;;;10.73;100.00
76108;BME280;64834;52.516;10.528;2023-08-30T03:45:20;100133.78;;;10.73;100.00
76108;BME280;64834;52.516;10.528;2023-08-30T03:47:46;100138.06;;;10.71;100.00
76108;BME280;64834;52.516;10.528;2023-08-30T03:50:11;100136.28;;;10.70;100.00
76108;BME280;64834;52.516;10.528;2023-08-30T03:52:36;100135.41;;;10.69;100.00
76108;BME280;64834;52.516;10.528;2023-08-30T03:55:02;100125.00;;;10.71;99.87
76108;BME280;64834;52.516;10.528;2023-08-30T03:57:28;100125.00;;;10.71;100.00
76108;BME280;64834;52.516;10.528;2023-08-30T03:59:53;100130.00;;;10.66;100.00
76108;BME280;64834;52.516;10.528;2023-08-30T04:02:19;100118.59;;;10.64;100.00
76108;BME280;64834;52.516;10.528;2023-08-30T04:04:46;100123.94;;;10.67;100.00
76108;BME280;64834;52.516;10.528;2023-08-30T04:07:12;100117.81;;;10.67;100.00
76108;BME280;64834;52.516;10.528;2023-08-30T04:09:37;100119.69;;;10.69;100.00
76108;BME280;64834;52.516;10.528;2023-08-30T04:12:03;100113.56;;;10.69;100.00
76108;BME280;64834;52.516;10.528;2023-08-30T04:14:29;100105.56;;;10.66;100.00
76108;BME280;64834;52.516;10.528;2023-08-30T04:16:55;100118.66;;;10.66;100.00
76108;BME280;64834;52.516;10.528;2023-08-30T04:19:20;100119.47;;;10.65;100.00
76108;BME280;64834;52.516;10.528;2023-08-30T04:21:46;100118.94;;;10.72;100.00
76108;BME280;64834;52.516;10.528;2023-08-30T04:24:11;100114.66;;;10.74;100.00
76108;BME280;64834;52.516;10.528;2023-08-30T04:26:36;100100.94;;;10.79;100.00
76108;BME280;64834;52.516;10.528;2023-08-30T04:29:02;100096.41;;;10.75;100.00
76108;BME280;64834;52.516;10.528;2023-08-30T04:31:28;100098.06;;;10.73;100.00
76108;BME280;64834;52.516;10.528;2023-08-30T04:33:54;100092.41;;;10.64;100.00
76108;BME280;64834;52.516;10.528;2023-08-30T04:36:20;100094.16;;;10.64;100.00
76108;BME280;64834;52.516;10.528;2023-08-30T04:38:46;100094.19;;;10.65;100.00
76108;BME280;64834;52.516;10.528;2023-08-30T04:41:11;100100.22;;;10.63;100.00
76108;BME280;64834;52.516;10.528;2023-08-30T04:43:37;100102.81;;;10.63;100.00
76108;BME280;64834;52.516;10.528;2023-08-30T04:46:02;100095.50;;;10.56;98.79
76108;BME280;64834;52.516;10.528;2023-08-30T04:48:28;100103.34;;;10.56;99.33
76108;BME280;64834;52.516;10.528;2023-08-30T04:51:03;100103.22;;;10.52;99.24
76108;BME280;64834;52.516;10.528;2023-08-30T04:53:29;100102.25;;;10.50;99.97
76108;BME280;64834;52.516;10.528;2023-08-30T04:55:54;100106.06;;;10.57;99.62
76108;BME280;64834;52.516;10.528;2023-08-30T04:58:20;100104.78;;;10.68;98.55
76108;BME280;64834;52.516;10.528;2023-08-30T05:00:46;100099.72;;;10.71;99.06
76108;BME280;64834;52.516;10.528;2023-08-30T05:03:11;100110.03;;;10.68;100.00
76108;BME280;64834;52.516;10.528;2023-08-30T05:05:37;100106.72;;;10.72;100.00
76108;BME280;64834;52.516;10.528;2023-08-30T05:08:02;100108.69;;;10.76;100.00
76108;BME280;64834;52.516;10.528;2023-08-30T05:10:29;100115.03;;;10.82;100.00
76108;BME280;64834;52.516;10.528;2023-08-30T05:12:54;100113.63;;;10.90;100.00
76108;BME280;64834;52.516;10.528;2023-08-30T05:15:20;100104.66;;;11.04;100.00
76108;BME280;64834;52.516;10.528;2023-08-30T05:17:45;100100.72;;;11.14;100.00
76108;BME280;64834;52.516;10.528;2023-08-30T05:20:11;100102.06;;;11.25;100.00
76108;BME280;64834;52.516;10.528;2023-08-30T05:22:36;100097.19;;;11.32;100.00
76108;BME280;64834;52.516;10.528;2023-08-30T05:25:01;100089.75;;;11.43;100.00
76108;BME280;64834;52.516;10.528;2023-08-30T05:27:27;100082.56;;;11.58;100.00
76108;BME280;64834;52.516;10.528;2023-08-30T05:29:53;100090.28;;;11.76;100.00
76108;BME280;64834;52.516;10.528;2023-08-30T05:32:18;100088.13;;;11.87;100.00
76108;BME280;64834;52.516;10.528;2023-08-30T05:34:45;100088.75;;;12.02;100.00
76108;BME280;64834;52.516;10.528;2023-08-30T05:37:11;100081.38;;;12.14;100.00
76108;BME280;64834;52.516;10.528;2023-08-30T05:39:36;100082.84;;;12.30;100.00
76108;BME280;64834;52.516;10.528;2023-08-30T05:42:02;100086.84;;;12.43;100.00
76108;BME280;64834;52.516;10.528;2023-08-30T05:44:27;100091.78;;;12.58;99.89
76108;BME280;64834;52.516;10.528;2023-08-30T05:46:53;100086.59;;;12.59;99.39
76108;BME280;64834;52.516;10.528;2023-08-30T05:49:18;100088.66;;;12.68;99.23
76108;BME280;64834;52.516;10.528;2023-08-30T05:51:43;100083.84;;;12.80;99.38
76108;BME280;64834;52.516;10.528;2023-08-30T05:54:09;100082.91;;;13.02;99.79
76108;BME280;64834;52.516;10.528;2023-08-30T05:56:34;100074.47;;;13.11;98.30
76108;BME280;64834;52.516;10.528;2023-08-30T05:59:00;100091.84;;;13.07;98.34
76108;BME280;64834;52.516;10.528;2023-08-30T06:01:25;100084.22;;;12.89;98.75
76108;BME280;64834;52.516;10.528;2023-08-30T06:03:51;100098.50;;;12.98;98.73
76108;BME280;64834;52.516;10.528;2023-08-30T06:06:16;100092.81;;;13.09;98.68
76108;BME280;64834;52.516;10.528;2023-08-30T06:08:42;100098.44;;;13.20;98.14
76108;BME280;64834;52.516;10.528;2023-08-30T06:11:07;100098.66;;;13.26;96.85
76108;BME280;64834;52.516;10.528;2023-08-30T06:13:33;100092.81;;;13.33;95.40
76108;BME280;64834;52.516;10.528;2023-08-30T06:15:58;100085.91;;;13.37;94.95
76108;BME280;64834;52.516;10.528;2023-08-30T06:18:23;100090.41;;;13.39;95.63
76108;BME280;64834;52.516;10.528;2023-08-30T06:20:49;100082.94;;;13.52;95.77
76108;BME280;64834;52.516;10.528;2023-08-30T06:23:17;100087.88;;;13.69;96.02
76108;BME280;64834;52.516;10.528;2023-08-30T06:25:43;100075.28;;;13.86;95.26
76108;BME280;64834;52.516;10.528;2023-08-30T06:28:08;100076.81;;;14.07;93.61
76108;BME280;64834;52.516;10.528;2023-08-30T06:30:34;100080.66;;;14.16;92.54
76108;BME280;64834;52.516;10.528;2023-08-30T06:32:59;100081.50;;;14.15;91.56
76108;BME280;64834;52.516;10.528;2023-08-30T06:35:25;100090.38;;;14.19;91.64
76108;BME280;64834;52.516;10.528;2023-08-30T06:37:51;100078.34;;;14.27;91.42
76108;BME280;64834;52.516;10.528;2023-08-30T06:40:17;100078.66;;;14.38;90.69
76108;BME280;64834;52.516;10.528;2023-08-30T06:42:42;100078.47;;;14.59;91.22
76108;BME280;64834;52.516;10.528;2023-08-30T06:45:08;100072.09;;;14.82;89.60
76108;BME280;64834;52.516;10.528;2023-08-30T06:47:33;100078.16;;;15.09;88.33
76108;BME280;64834;52.516;10.528;2023-08-30T06:50:00;100075.34;;;15.36;86.50
76108;BME280;64834;52.516;10.528;2023-08-30T06:52:25;100062.38;;;15.44;87.13
76108;BME280;64834;52.516;10.528;2023-08-30T06:54:50;100067.97;;;15.56;86.58
76108;BME280;64834;52.516;10.528;2023-08-30T06:57:16;100071.50;;;15.58;84.89
76108;BME280;64834;52.516;10.528;2023-08-30T06:59:41;100073.09;;;15.52;84.74
76108;BME280;64834;52.516;10.528;2023-08-30T07:02:08;100069.13;;;15.66;84.48
76108;BME280;64834;52.516;10.528;2023-08-30T07:04:33;100053.97;;;15.94;84.81
76108;BME280;64834;52.516;10.528;2023-08-30T07:06:58;100059.19;;;15.90;84.24
76108;BME280;64834;52.516;10.528;2023-08-30T07:09:24;100065.66;;;16.05;84.21
76108;BME280;64834;52.516;10.528;2023-08-30T07:11:54;100064.16;;;16.55;82.57
76108;BME280;64834;52.516;10.528;2023-08-30T07:14:20;100069.59;;;17.05;81.49
76108;BME280;64834;52.516;10.528;2023-08-30T07:16:45;100063.09;;;17.35;78.02
76108;BME280;64834;52.516;10.528;2023-08-30T07:19:11;100055.53;;;17.55;76.68
76108;BME280;64834;52.516;10.528;2023-08-30T07:21:36;100056.00;;;17.82;74.50
76108;BME280;64834;52.516;10.528;2023-08-30T07:24:04;100057.84;;;17.86;74.59
76108;BME280;64834;52.516;10.528;2023-08-30T07:26:29;100054.16;;;17.76;75.02
76108;BME280;64834;52.516;10.528;2023-08-30T07:28:55;100056.19;;;17.93;75.20
76108;BME280;64834;52.516;10.528;2023-08-30T07:31:20;100053.38;;;17.84;75.95
76108;BME280;64834;52.516;10.528;2023-08-30T07:33:46;100052.47;;;17.80;75.69
76108;BME280;64834;52.516;10.528;2023-08-30T07:36:12;100048.06;;;17.81;75.41
76108;BME280;64834;52.516;10.528;2023-08-30T07:38:37;100050.81;;;17.87;75.65
76108;BME280;64834;52.516;10.528;2023-08-30T07:41:02;100054.44;;;17.95;75.05
76108;BME280;64834;52.516;10.528;2023-08-30T07:43:28;100059.81;;;17.98;74.84
76108;BME280;64834;52.516;10.528;2023-08-30T07:45:53;100065.22;;;18.05;73.21
76108;BME280;64834;52.516;10.528;2023-08-30T07:48:18;100057.84;;;17.86;74.52
76108;BME280;64834;52.516;10.528;2023-08-30T07:50:44;100060.72;;;18.01;73.82
76108;BME280;64834;52.516;10.528;2023-08-30T07:53:09;100069.13;;;18.32;72.85
76108;BME280;64834;52.516;10.528;2023-08-30T07:55:36;100063.81;;;18.30;73.03
76108;BME280;64834;52.516;10.528;2023-08-30T07:58:01;100067.50;;;18.42;72.06
76108;BME280;64834;52.516;10.528;2023-08-30T08:00:28;100069.81;;;18.81;71.18
76108;BME280;64834;52.516;10.528;2023-08-30T08:02:53;100067.25;;;18.92;71.64
76108;BME280;64834;52.516;10.528;2023-08-30T08:05:19;100060.16;;;18.86;70.17
76108;BME280;64834;52.516;10.528;2023-08-30T08:07:44;100064.59;;;18.89;70.74
76108;BME280;64834;52.516;10.528;2023-08-30T08:10:09;100073.66;;;19.09;69.71
76108;BME280;64834;52.516;10.528;2023-08-30T08:12:35;100067.19;;;18.85;68.91
76108;BME280;64834;52.516;10.528;2023-08-30T08:15:00;100062.16;;;19.07;69.11
76108;BME280;64834;52.516;10.528;2023-08-30T08:17:26;100058.81;;;19.25;67.98
76108;BME280;64834;52.516;10.528;2023-08-30T08:19:51;100066.91;;;19.40;68.19
76108;BME280;64834;52.516;10.528;2023-08-30T08:22:16;100052.00;;;19.53;66.92
76108;BME280;64834;52.516;10.528;2023-08-30T08:24:42;100051.34;;;19.74;66.16
76108;BME280;64834;52.516;10.528;2023-08-30T08:27:08;100041.56;;;19.70;66.08
76108;BME280;64834;52.516;10.528;2023-08-30T08:29:34;100043.03;;;19.40;66.85
76108;BME280;64834;52.516;10.528;2023-08-30T08:31:59;100034.44;;;19.67;66.68
76108;BME280;64834;52.516;10.528;2023-08-30T08:34:25;100047.13;;;20.03;65.10
76108;BME280;64834;52.516;10.528;2023-08-30T08:36:50;100055.16;;;20.14;64.82
76108;BME280;64834;52.516;10.528;2023-08-30T08:39:15;100044.66;;;20.32;63.12
76108;BME280;64834;52.516;10.528;2023-08-30T08:41:42;100042.81;;;20.24;63.56
76108;BME280;64834;52.516;10.528;2023-08-30T08:44:09;100046.47;;;20.38;62.97
76108;BME280;64834;52.516;10.528;2023-08-30T08:46:35;100053.69;;;20.57;62.76
76108;BME280;64834;52.516;10.528;2023-08-30T08:49:11;100051.09;;;20.80;61.96
76108;BME280;64834;52.516;10.528;2023-08-30T08:51:37;100047.66;;;21.10;64.35
76108;BME280;64834;52.516;10.528;2023-08-30T08:54:03;100044.94;;;20.90;60.24
76108;BME280;64834;52.516;10.528;2023-08-30T08:56:32;100042.31;;;20.95;60.40
76108;BME280;64834;52.516;10.528;2023-08-30T08:59:01;100043.13;;;20.80;63.02
76108;BME280;64834;52.516;10.528;2023-08-30T09:01:27;100039.56;;;20.73;60.87
76108;BME280;64834;52.516;10.528;2023-08-30T09:03:53;100039.53;;;20.67;63.00
76108;BME280;64834;52.516;10.528;2023-08-30T09:06:19;100043.19;;;20.88;62.20
76108;BME280;64834;52.516;10.528;2023-08-30T09:08:45;100043.19;;;20.94;60.86
76108;BME280;64834;52.516;10.528;2023-08-30T09:11:11;100036.06;;;20.90;61.35
76108;BME280;64834;52.516;10.528;2023-08-30T09:13:36;100028.94;;;20.80;61.86
76108;BME280;64834;52.516;10.528;2023-08-30T09:16:02;100029.69;;;20.45;63.12
76108;BME280;64834;52.516;10.528;2023-08-30T09:18:30;100035.66;;;20.10;63.37
76108;BME280;64834;52.516;10.528;2023-08-30T09:21:09;100039.28;;;20.23;62.17
76108;BME280;64834;52.516;10.528;2023-08-30T09:23:34;100033.38;;;20.76;61.91
76108;BME280;64834;52.516;10.528;2023-08-30T09:26:00;100030.84;;;21.13;59.95
76108;BME280;64834;52.516;10.528;2023-08-30T09:28:27;100038.88;;;21.40;57.48
76108;BME280;64834;52.516;10.528;2023-08-30T09:30:53;100024.72;;;21.69;58.58
76108;BME280;64834;52.516;10.528;2023-08-30T09:33:22;100025.59;;;21.63;58.96
76108;BME280;64834;52.516;10.528;2023-08-30T09:35:48;100019.38;;;21.32;58.91
76108;BME280;64834;52.516;10.528;2023-08-30T09:38:20;100022.00;;;21.43;59.77
76108;BME280;64834;52.516;10.528;2023-08-30T09:40:45;100019.38;;;21.63;58.77
76108;BME280;64834;52.516;10.528;2023-08-30T09:43:12;100023.75;;;21.99;57.44
76108;BME280;64834;52.516;10.528;2023-08-30T09:45:37;100027.31;;;22.04;58.56
76108;BME280;64834;52.516;10.528;2023-08-30T09:48:05;100022.88;;;22.23;56.91
76108;BME280;64834;52.516;10.528;2023-08-30T09:50:33;100022.88;;;22.06;56.01
76108;BME280;64834;52.516;10.528;2023-08-30T09:53:06;100008.69;;;22.12;54.36
76108;BME280;64834;52.516;10.528;2023-08-30T09:55:33;100010.44;;;22.05;55.78
76108;BME280;64834;52.516;10.528;2023-08-30T09:57:58;100006.94;;;21.72;57.38
76108;BME280;64834;52.516;10.528;2023-08-30T10:00:24;100001.59;;;21.94;56.26
76108;BME280;64834;52.516;10.528;2023-08-30T10:02:50;99998.03;;;22.02;54.30
76108;BME280;64834;52.516;10.528;2023-08-30T10:05:15;99997.16;;;21.79;55.58
76108;BME280;64834;52.516;10.528;2023-08-30T10:07:42;99995.34;;;22.07;57.75
76108;BME280;64834;52.516;10.528;2023-08-30T10:10:09;99992.69;;;22.10;54.31
76108;BME280;64834;52.516;10.528;2023-08-30T10:12:35;99993.59;;;21.86;54.10
76108;BME280;64834;52.516;10.528;2023-08-30T10:15:02;99982.88;;;20.99;56.00
76108;BME280;64834;52.516;10.528;2023-08-30T10:17:31;99986.47;;;21.07;56.52
76108;BME280;64834;52.516;10.528;2023-08-30T10:19:58;99989.03;;;20.69;58.57
76108;BME280;64834;52.516;10.528;2023-08-30T10:22:24;99990.81;;;20.73;59.73
76108;BME280;64834;52.516;10.528;2023-08-30T10:24:56;99993.56;;;21.16;57.92
76108;BME280;64834;52.516;10.528;2023-08-30T10:27:23;99994.44;;;21.02;56.63
76108;BME280;64834;52.516;10.528;2023-08-30T10:29:50;99994.41;;;20.98;58.09
76108;BME280;64834;52.516;10.528;2023-08-30T10:32:22;99987.28;;;20.80;58.26
76108;BME280;64834;52.516;10.528;2023-08-30T10:34:49;99998.88;;;21.00;57.88
76108;BME280;64834;52.516;10.528;2023-08-30T10:37:15;99989.19;;;21.42;56.91
76108;BME280;64834;52.516;10.528;2023-08-30T10:39:41;99994.44;;;20.99;55.66
76108;BME280;64834;52.516;10.528;2023-08-30T10:42:14;100001.56;;;21.16;56.22
76108;BME280;64834;52.516;10.528;2023-08-30T10:44:50;99999.84;;;21.50;56.13
76108;BME280;64834;52.516;10.528;2023-08-30T10:47:22;99997.19;;;21.56;55.35
76108;BME280;64834;52.516;10.528;2023-08-30T10:49:47;99998.06;;;21.61;53.91
76108;BME280;64834;52.516;10.528;2023-08-30T10:52:13;99998.88;;;21.11;54.08
76108;BME280;64834;52.516;10.528;2023-08-30T10:54:38;99997.91;;;20.80;55.25
76108;BME280;64834;52.516;10.528;2023-08-30T10:57:04;99997.13;;;21.13;55.90
76108;BME280;64834;52.516;10.528;2023-08-30T10:59:30;99993.59;;;21.20;54.67
76108;BME280;64834;52.516;10.528;2023-08-30T11:01:55;99986.53;;;21.44;54.81
76108;BME280;64834;52.516;10.528;2023-08-30T11:04:21;99987.34;;;21.98;53.15
76108;BME280;64834;52.516;10.528;2023-08-30T11:06:51;99982.97;;;21.77;52.37
76108;BME280;64834;52.516;10.528;2023-08-30T11:09:18;99990.06;;;21.41;53.52
76108;BME280;64834;52.516;10.528;2023-08-30T11:11:47;99985.66;;;21.65;53.63
76108;BME280;64834;52.516;10.528;2023-08-30T11:14:14;99973.22;;;21.59;52.18
76108;BME280;64834;52.516;10.528;2023-08-30T11:16:40;99982.06;;;21.78;51.79
76108;BME280;64834;52.516;10.528;2023-08-30T11:19:08;99972.25;;;22.00;51.65
76108;BME280;64834;52.516;10.528;2023-08-30T11:21:38;99974.03;;;22.16;49.98
76108;BME280;64834;52.516;10.528;2023-08-30T11:24:05;99970.47;;;22.22;51.33
76108;BME280;64834;52.516;10.528;2023-08-30T11:26:31;99980.16;;;22.44;50.32
76108;BME280;64834;52.516;10.528;2023-08-30T11:28:56;99967.59;;;22.71;50.57
76108;BME280;64834;52.516;10.528;2023-08-30T11:31:25;99964.88;;;22.75;49.37
76108;BME280;64834;52.516;10.528;2023-08-30T11:33:53;99972.13;;;22.49;50.67
76108;BME280;64834;52.516;10.528;2023-08-30T11:36:21;99965.91;;;22.53;50.83
76108;BME280;64834;52.516;10.528;2023-08-30T11:38:48;99960.44;;;22.73;50.29
76108;BME280;64834;52.516;10.528;2023-08-30T11:41:13;99966.69;;;22.72;49.79
76108;BME280;64834;52.516;10.528;2023-08-30T11:43:39;99956.97;;;22.63;50.50
76108;BME280;64834;52.516;10.528;2023-08-30T11:46:05;99946.22;;;22.72;49.43
76108;BME280;64834;52.516;10.528;2023-08-30T11:48:31;99949.66;;;23.02;50.51
76108;BME280;64834;52.516;10.528;2023-08-30T11:50:57;99951.38;;;23.04;48.25
76108;BME280;64834;52.516;10.528;2023-08-30T11:53:23;99957.72;;;22.80;48.95
76108;BME280;64834;52.516;10.528;2023-08-30T11:55:48;99948.81;;;22.87;48.29
76108;BME280;64834;52.516;10.528;2023-08-30T11:58:14;99947.94;;;22.81;49.49
76108;BME280;64834;52.516;10.528;2023-08-30T12:00:39;99937.38;;;22.67;49.46
76108;BME280;64834;52.516;10.528;2023-08-30T12:03:05;99942.78;;;22.52;49.39
76108;BME280;64834;52.516;10.528;2023-08-30T12:05:30;99946.34;;;22.49;49.56
76108;BME280;64834;52.516;10.528;2023-08-30T12:08:00;99940.16;;;22.47;49.28
76108;BME280;64834;52.516;10.528;2023-08-30T12:10:28;99940.06;;;22.66;48.26
76108;BME280;64834;52.516;10.528;2023-08-30T12:12:54;99939.03;;;22.85;49.17
76108;BME280;64834;52.516;10.528;2023-08-30T12:15:22;99928.31;;;22.94;48.05
76108;BME280;64834;52.516;10.528;2023-08-30T12:17:49;99923.94;;;22.87;48.20
76108;BME280;64834;52.516;10.528;2023-08-30T12:20:16;99926.63;;;22.82;47.72
76108;BME280;64834;52.516;10.528;2023-08-30T12:22:43;99922.03;;;23.07;48.03
76108;BME280;64834;52.516;10.528;2023-08-30T12:25:18;99920.94;;;23.33;47.34
76108;BME280;64834;52.516;10.528;2023-08-30T12:27:44;99919.94;;;23.45;46.57
76108;BME280;64834;52.516;10.528;2023-08-30T12:30:10;99915.25;;;23.71;46.36
76108;BME280;64834;52.516;10.528;2023-08-30T12:32:35;99914.81;;;23.17;45.51
76108;BME280;64834;52.516;10.528;2023-08-30T12:35:00;99904.09;;;23.23;46.53
76108;BME280;64834;52.516;10.528;2023-08-30T12:37:25;99901.22;;;23.46;46.85